Time;durP1;ratioP1;P1;durP2;ratioP2;P2;SDS_P1;SDS_P2;PMS_P1;PMS_P2;Temp;Humidity;BMP_temperature;BMP_pressure;BME280_temperature;BME280_humidity;BME280_pressure;Samples;Min_cycle;Max_cycle;Signal;HPM_P1;HPM_P2
2022/06/09 00:00:54;;;;;;;17.15;11.63;;;;;;;18.47;80.93;98403.69;4303867;33;34112;-72
2022/06/09 00:03:28;;;;;;;20.50;9.80;;;;;;;18.55;79.69;98398.00;4303983;33;33798;-73
2022/06/09 00:05:56;;;;;;;13.02;9.45;;;;;;;18.21;80.71;98399.91;4316117;33;34877;-72
2022/06/09 00:08:25;;;;;;;12.63;9.55;;;;;;;18.13;81.23;98396.88;4315182;33;35022;-72
2022/06/09 00:10:56;;;;;;;12.88;9.63;;;;;;;18.44;78.78;98397.75;4305154;33;33655;-72
2022/06/09 00:13:25;;;;;;;14.20;9.90;;;;;;;18.43;78.79;98404.81;4304764;33;34847;-73
2022/06/09 00:15:52;;;;;;;14.93;10.45;;;;;;;18.41;79.10;98400.59;4315123;33;35042;-72
2022/06/09 00:18:21;;;;;;;13.55;9.60;;;;;;;18.02;79.87;98399.25;4304584;33;34433;-73
2022/06/09 00:20:50;;;;;;;16.50;9.85;;;;;;;18.29;78.94;98405.59;4292510;33;34350;-73
2022/06/09 00:23:18;;;;;;;13.05;8.70;;;;;;;18.23;78.82;98408.59;4303220;33;33785;-73
2022/06/09 00:25:46;;;;;;;16.87;10.75;;;;;;;17.60;82.16;98409.44;4315952;33;35080;-72
2022/06/09 00:28:14;;;;;;;14.27;9.73;;;;;;;17.66;81.83;98405.63;4303082;33;35112;-72
2022/06/09 00:30:42;;;;;;;19.30;10.25;;;;;;;17.90;81.80;98399.03;4304228;33;34115;-71
2022/06/09 00:33:10;;;;;;;13.98;9.60;;;;;;;18.03;80.63;98401.81;4303517;33;34966;-73
2022/06/09 00:35:38;;;;;;;13.60;9.30;;;;;;;17.45;83.71;98397.94;4304917;33;35323;-73
2022/06/09 00:38:06;;;;;;;15.02;9.20;;;;;;;17.56;84.41;98392.09;4304473;33;35228;-73
2022/06/09 00:40:34;;;;;;;14.70;9.15;;;;;;;17.89;81.65;98391.22;4305027;33;33466;-72
2022/06/09 00:43:03;;;;;;;15.82;10.30;;;;;;;17.95;80.52;98393.50;4303566;33;34744;-72
2022/06/09 00:45:47;;;;;;;13.30;9.90;;;;;;;17.58;81.75;98391.09;4303773;33;35153;-73
2022/06/09 00:48:35;;;;;;;14.18;8.82;;;;;;;17.68;82.05;98390.56;4308820;33;34445;-73
2022/06/09 00:51:40;;;;;;;13.07;9.23;;;;;;;17.61;82.48;98390.94;4304638;33;33495;-72
2022/06/09 00:54:15;;;;;;;13.45;9.82;;;;;;;17.65;82.16;98385.47;4304715;33;33438;-72
2022/06/09 00:56:47;;;;;;;15.15;9.45;;;;;;;18.17;79.39;98393.97;4303511;33;35019;-72
2022/06/09 00:59:18;;;;;;;16.12;8.73;;;;;;;18.10;79.25;98397.88;4301340;33;35227;-72
2022/06/09 01:01:46;;;;;;;17.35;11.63;;;;;;;18.02;79.32;98394.00;4301116;33;32905;-73
2022/06/09 01:04:17;;;;;;;17.33;11.48;;;;;;;17.48;82.66;98395.16;4303840;33;34808;-72
2022/06/09 01:06:57;;;;;;;20.45;12.48;;;;;;;17.51;84.69;98400.25;4303001;33;35198;-73
2022/06/09 01:09:26;;;;;;;17.23;11.18;;;;;;;17.58;84.75;98391.09;4301142;33;34668;-73
2022/06/09 01:11:55;;;;;;;17.60;9.60;;;;;;;17.81;83.93;98391.59;4295828;33;34247;-72
2022/06/09 01:14:27;;;;;;;14.60;10.45;;;;;;;18.18;82.29;98390.41;4303693;33;33817;-80
2022/06/09 01:17:00;;;;;;;14.90;9.95;;;;;;;18.28;81.69;98384.59;4304035;33;34997;-72
2022/06/09 01:19:53;;;;;;;17.77;12.85;;;;;;;18.32;82.20;98392.25;4304791;33;34351;-72
2022/06/09 01:22:39;;;;;;;16.92;11.00;;;;;;;18.42;82.58;98392.56;4314198;33;32764;-72
2022/06/09 01:25:36;;;;;;;25.13;11.73;;;;;;;18.36;83.00;98391.13;4304443;33;34791;-72
2022/06/09 01:28:37;;;;;;;;;;;;;;;18.23;83.91;98379.63;4303175;33;35704;-72
2022/06/09 01:31:15;;;;;;;18.40;11.45;;;;;;;17.75;87.42;98378.78;4295459;33;34745;-72
2022/06/09 01:34:15;;;;;;;15.70;9.60;;;;;;;18.09;85.54;98375.13;4314604;33;33619;-72
2022/06/09 01:37:03;;;;;;;15.32;10.50;;;;;;;18.49;82.72;98371.97;4304014;33;34173;-82
2022/06/09 01:39:44;;;;;;;16.80;9.73;;;;;;;17.84;86.94;98365.09;4305027;33;35094;-73
2022/06/09 01:42:23;;;;;;;16.05;11.00;;;;;;;18.30;85.05;98362.50;4302774;33;35179;-72
2022/06/09 01:44:55;;;;;;;18.08;11.93;;;;;;;18.60;82.97;98366.94;4302717;33;33586;-72
2022/06/09 01:47:25;;;;;;;17.37;11.57;;;;;;;18.28;84.16;98369.66;4314847;33;34769;-72
2022/06/09 01:49:55;;;;;;;15.27;9.98;;;;;;;17.77;88.34;98366.38;4303252;33;33676;-72
2022/06/09 01:52:25;;;;;;;14.95;10.65;;;;;;;17.48;91.91;98368.84;4303366;33;34410;-74
2022/06/09 01:54:55;;;;;;;17.40;10.73;;;;;;;17.33;93.78;98369.66;4314936;33;33664;-72
2022/06/09 01:57:26;;;;;;;16.17;10.85;;;;;;;17.19;95.03;98371.25;4302564;33;34711;-72
2022/06/09 02:00:14;;;;;;;21.52;12.43;;;;;;;17.09;96.74;98377.09;4303236;33;34856;-72
2022/06/09 02:02:47;;;;;;;16.42;10.85;;;;;;;17.56;93.37;98371.91;4293136;33;34361;-73
2022/06/09 02:05:19;;;;;;;18.05;10.73;;;;;;;17.72;91.46;98366.62;4303146;33;33337;-73
2022/06/09 02:07:49;;;;;;;19.02;11.65;;;;;;;17.49;93.49;98369.66;4302626;33;34032;-72
2022/06/09 02:10:33;;;;;;;17.58;11.20;;;;;;;18.14;89.61;98377.50;4302933;33;35029;-73
2022/06/09 02:13:05;;;;;;;15.98;10.70;;;;;;;18.35;88.95;98378.03;4293285;33;35152;-72
2022/06/09 02:15:38;;;;;;;14.30;9.95;;;;;;;17.93;89.51;98385.69;4304087;33;34334;-73
2022/06/09 02:18:11;;;;;;;18.37;10.90;;;;;;;18.12;89.91;98384.63;4302433;33;34049;-72
2022/06/09 02:20:42;;;;;;;15.93;10.75;;;;;;;18.91;83.82;98378.31;4304014;33;35006;-72
2022/06/09 02:23:12;;;;;;;17.05;11.15;;;;;;;18.77;83.41;98382.56;4302412;33;35345;-72
2022/06/09 02:25:40;;;;;;;17.25;11.23;;;;;;;18.33;86.96;98378.13;4303488;33;34275;-72
2022/06/09 02:28:08;;;;;;;15.25;10.13;;;;;;;18.61;86.18;98375.69;4303257;33;34016;-73
2022/06/09 02:30:37;;;;;;;16.52;10.98;;;;;;;18.64;86.93;98373.72;4304432;33;34901;-72
2022/06/09 02:33:18;;;;;;;18.62;10.57;;;;;;;18.41;87.22;98374.22;4304139;33;34602;-72
2022/06/09 02:35:51;;;;;;;19.12;11.25;;;;;;;18.04;90.05;98377.19;4303920;33;32630;-73
2022/06/09 02:38:19;;;;;;;18.15;11.32;;;;;;;18.56;88.11;98378.56;4305214;33;34011;-73
2022/06/09 02:40:48;;;;;;;17.80;11.43;;;;;;;18.87;85.77;98371.53;4303971;33;35907;-73
2022/06/09 02:43:16;;;;;;;18.45;11.85;;;;;;;18.26;88.39;98374.16;4316126;33;34395;-73
2022/06/09 02:45:44;;;;;;;17.00;10.25;;;;;;;18.09;90.67;98375.13;4305687;33;33685;-73
2022/06/09 02:48:13;;;;;;;18.85;11.48;;;;;;;18.71;88.51;98382.09;4316003;33;33275;-73
2022/06/09 02:50:41;;;;;;;15.50;10.80;;;;;;;19.23;83.67;98380.75;4316463;33;35873;-73
2022/06/09 02:53:09;;;;;;;15.52;11.05;;;;;;;19.12;84.95;98377.00;4304232;33;35228;-73
2022/06/09 02:55:37;;;;;;;15.55;9.50;;;;;;;18.84;86.29;98376.97;4316794;33;34564;-72
2022/06/09 02:58:05;;;;;;;16.42;10.90;;;;;;;18.69;87.37;98378.72;4304469;33;34935;-73
2022/06/09 03:00:33;;;;;;;17.30;10.65;;;;;;;18.15;91.18;98382.69;4305552;33;34866;-76
2022/06/09 03:03:05;;;;;;;17.52;11.52;;;;;;;18.23;91.80;98387.53;4303887;33;34464;-74
2022/06/09 03:05:35;;;;;;;24.50;14.27;;;;;;;18.20;92.67;98387.69;4304656;33;34379;-72
2022/06/09 03:08:06;;;;;;;24.12;14.02;;;;;;;18.42;91.66;98381.19;4303685;33;34710;-72
2022/06/09 03:10:35;;;;;;;25.77;15.20;;;;;;;18.45;92.83;98371.31;4315353;33;34841;-73
2022/06/09 03:13:03;;;;;;;21.30;12.95;;;;;;;18.65;92.00;98374.53;4304460;33;34530;-73
2022/06/09 03:15:32;;;;;;;21.67;12.40;;;;;;;18.64;92.65;98381.62;4292532;33;32697;-73
2022/06/09 03:17:59;;;;;;;20.17;13.00;;;;;;;18.84;91.88;98383.09;4315559;33;34629;-73
2022/06/09 03:20:31;;;;;;;21.95;13.95;;;;;;;19.36;88.90;98387.00;4304285;33;34966;-73
2022/06/09 03:22:59;;;;;;;20.37;13.00;;;;;;;18.84;92.28;98388.38;4303892;33;34155;-73
2022/06/09 03:25:27;;;;;;;22.33;14.05;;;;;;;18.89;91.83;98386.31;4316258;33;34528;-73
2022/06/09 03:27:54;;;;;;;23.08;13.30;;;;;;;19.19;91.32;98384.53;4304432;33;33840;-73
2022/06/09 03:30:27;;;;;;;18.40;12.95;;;;;;;19.51;88.12;98393.94;4305001;33;35936;-73
2022/06/09 03:32:55;;;;;;;20.08;13.62;;;;;;;19.21;90.25;98385.28;4315550;33;34323;-76
2022/06/09 03:35:23;;;;;;;23.40;13.30;;;;;;;18.85;92.29;98381.31;4305265;33;32333;-73
2022/06/09 03:37:51;;;;;;;18.45;13.20;;;;;;;18.91;92.24;98384.41;4303170;33;33931;-73
2022/06/09 03:40:20;;;;;;;22.20;14.30;;;;;;;19.55;88.60;98378.75;4315735;33;34677;-73
2022/06/09 03:42:48;;;;;;;21.50;15.32;;;;;;;18.95;91.01;98379.81;4303751;33;34517;-72
2022/06/09 03:45:16;;;;;;;23.77;14.48;;;;;;;18.96;92.93;98378.88;4304884;33;33460;-73
2022/06/09 03:47:44;;;;;;;24.33;14.48;;;;;;;19.08;92.19;98379.94;4302588;33;33978;-75
2022/06/09 03:50:19;;;;;;;27.77;15.73;;;;;;;19.28;90.98;98381.34;4316062;33;35647;-73
2022/06/09 03:52:47;;;;;;;32.03;17.27;;;;;;;19.50;89.94;98376.41;4301633;33;34375;-82
2022/06/09 03:55:16;;;;;;;35.15;16.83;;;;;;;18.86;94.85;98385.63;4305150;33;34080;-82
2022/06/09 03:57:44;;;;;;;27.87;16.62;;;;;;;18.91;96.02;98383.56;4303323;33;34067;-80
2022/06/09 04:00:19;;;;;;;26.30;15.45;;;;;;;19.59;91.87;98380.28;4315637;33;34903;-74
2022/06/09 04:02:47;;;;;;;34.53;18.15;;;;;;;20.04;87.06;98382.72;4303836;33;34554;-73
2022/06/09 04:05:15;;;;;;;40.80;16.70;;;;;;;20.39;85.42;98387.50;4304999;33;33646;-71
2022/06/09 04:07:43;;;;;;;30.80;15.90;;;;;;;20.41;86.05;98388.25;4303445;33;34061;-81
2022/06/09 04:10:17;;;;;;;31.48;15.88;;;;;;;20.90;82.60;98374.38;4289291;33;35276;-76
2022/06/09 04:12:45;;;;;;;28.02;16.55;;;;;;;21.13;81.23;98377.25;4290641;33;34573;-78
2022/06/09 04:15:15;;;;;;;32.65;17.67;;;;;;;20.16;87.38;98381.09;4290589;33;34346;-74
2022/06/09 04:17:44;;;;;;;29.40;17.25;;;;;;;20.80;84.21;98375.97;4295336;33;33985;-75
2022/06/09 04:20:16;;;;;;;25.25;16.05;;;;;;;20.62;85.51;98378.91;4304362;33;35759;-77
2022/06/09 04:22:44;;;;;;;30.25;16.87;;;;;;;20.27;87.58;98376.78;4289287;33;34306;-75
2022/06/09 04:25:20;;;;;;;27.15;17.98;;;;;;;19.89;90.84;98377.50;4304709;33;33912;-74
2022/06/09 04:27:48;;;;;;;24.33;15.05;;;;;;;19.87;91.87;98379.41;4303304;33;33898;-72
2022/06/09 04:30:16;;;;;;;28.48;15.68;;;;;;;20.69;86.34;98375.84;4304380;33;36301;-88
2022/06/09 04:32:53;;;;;;;22.77;14.63;;;;;;;20.93;85.30;98378.59;4304031;33;34241;-87
2022/06/09 04:35:21;;;;;;;21.17;13.48;;;;;;;21.02;83.91;98385.94;4293457;33;33543;-86
2022/06/09 04:38:01;;;;;;;24.63;14.50;;;;;;;20.60;85.79;98394.00;4304680;33;34621;-82
2022/06/09 04:40:34;;;;;;;28.62;16.00;;;;;;;20.23;88.27;98398.25;4293718;33;35953;-86
2022/06/09 04:43:04;;;;;;;20.52;14.00;;;;;;;20.52;87.77;98396.28;4303956;33;35211;-85
2022/06/09 04:45:33;;;;;;;25.27;15.02;;;;;;;21.57;80.99;98399.78;4304351;33;32863;-72
2022/06/09 04:48:01;;;;;;;25.33;15.20;;;;;;;21.27;82.77;98402.75;4303564;33;33987;-82
2022/06/09 04:50:30;;;;;;;27.10;16.42;;;;;;;20.98;84.24;98403.81;4303827;33;35075;-72
2022/06/09 04:52:59;;;;;;;29.63;16.77;;;;;;;20.62;86.58;98407.16;4303628;33;34546;-73
2022/06/09 04:55:26;;;;;;;27.85;16.30;;;;;;;20.44;86.64;98409.19;4314199;33;33595;-76
2022/06/09 04:57:55;;;;;;;27.00;16.48;;;;;;;20.35;87.98;98415.09;4304415;33;33935;-73
2022/06/09 05:00:23;;;;;;;26.95;16.35;;;;;;;20.21;89.50;98413.38;4304981;33;35139;-89
2022/06/09 05:02:51;;;;;;;25.62;14.95;;;;;;;20.06;90.23;98412.53;4304608;33;34287;-87
2022/06/09 05:05:22;;;;;;;27.80;17.02;;;;;;;20.62;87.54;98410.63;4304808;33;33596;-84
2022/06/09 05:07:50;;;;;;;21.55;14.13;;;;;;;20.36;88.79;98411.50;4304787;33;33966;-76
2022/06/09 05:10:18;;;;;;;20.62;13.48;;;;;;;21.06;84.99;98410.38;4304632;33;36004;-72
2022/06/09 05:12:46;;;;;;;24.12;14.98;;;;;;;20.98;83.17;98421.47;4302779;33;34605;-88
2022/06/09 05:15:16;;;;;;;23.38;15.10;;;;;;;21.63;78.24;98415.22;4304108;33;33860;-72
2022/06/09 05:17:43;;;;;;;26.05;14.68;;;;;;;21.20;80.48;98412.94;4304744;33;33921;-72
2022/06/09 05:20:13;;;;;;;20.92;14.90;;;;;;;21.07;82.38;98420.88;4304413;33;34928;-72
2022/06/09 05:22:41;;;;;;;24.48;15.38;;;;;;;21.42;80.87;98419.38;4303597;33;33638;-73
2022/06/09 05:25:09;;;;;;;22.27;15.05;;;;;;;20.77;84.48;98416.72;4304171;33;34310;-72
2022/06/09 05:27:37;;;;;;;25.15;16.20;;;;;;;21.61;79.29;98421.59;4304617;33;34836;-84
2022/06/09 05:30:08;;;;;;;22.02;14.95;;;;;;;21.34;81.95;98425.22;4302947;33;35025;-86
2022/06/09 05:32:36;;;;;;;22.80;15.82;;;;;;;21.35;82.39;98426.88;4289093;33;34432;-72
2022/06/09 05:35:05;;;;;;;20.48;14.98;;;;;;;21.26;83.20;98432.84;4289860;33;34363;-85
2022/06/09 05:45:59;;;;;;;23.30;15.30;;;;;;;21.46;81.43;98432.34;4301008;33;34396;-83
2022/06/09 05:48:27;;;;;;;19.27;13.75;;;;;;;21.85;81.29;98438.41;4304138;33;33943;-73
2022/06/09 05:50:55;;;;;;;21.67;15.80;;;;;;;21.69;82.57;98441.31;4304101;33;36181;-78
2022/06/09 05:53:23;;;;;;;22.55;14.98;;;;;;;22.55;78.35;98441.34;4302700;33;34648;-74
2022/06/09 05:55:51;;;;;;;19.05;13.95;;;;;;;22.41;78.80;98437.91;4302062;33;34339;-77
2022/06/09 05:58:19;;;;;;;19.70;13.73;;;;;;;22.34;76.21;98444.63;4303972;33;34798;-71
2022/06/09 06:00:47;;;;;;;18.58;12.82;;;;;;;22.69;74.81;98451.78;4303962;33;35961;-71
2022/06/09 06:03:16;;;;;;;17.90;12.85;;;;;;;22.90;75.00;98444.00;4303144;33;34701;-85
2022/06/09 06:08:31;;;;;;;15.05;9.30;;;;;;;22.63;71.55;98449.59;4313456;33;33986;-71
2022/06/09 06:10:59;;;;;;;14.20;10.63;;;;;;;23.05;71.23;98453.50;4303309;33;34590;-71
2022/06/09 06:13:27;;;;;;;13.55;10.10;;;;;;;23.03;74.84;98457.19;4303321;33;34452;-71
2022/06/09 06:15:55;;;;;;;15.23;10.45;;;;;;;23.08;69.32;98457.72;4303467;33;33515;-85
2022/06/09 06:18:30;;;;;;;11.90;8.82;;;;;;;22.50;73.63;98462.91;4314215;33;34381;-71
2022/06/09 06:20:58;;;;;;;10.75;7.97;;;;;;;23.01;70.79;98461.75;4303477;33;35160;-84
2022/06/09 06:23:27;;;;;;;11.20;7.97;;;;;;;23.09;68.38;98457.59;4314801;33;34439;-71
2022/06/09 06:25:56;;;;;;;11.60;7.95;;;;;;;23.06;68.30;98462.28;4301338;33;33565;-71
2022/06/09 06:28:25;;;;;;;14.55;10.75;;;;;;;22.91;69.58;98462.47;4290952;33;33910;-71
2022/06/09 06:30:57;;;;;;;16.17;12.05;;;;;;;23.19;67.76;98460.41;4303186;33;34844;-71
2022/06/09 06:33:25;;;;;;;17.02;11.63;;;;;;;22.79;67.79;98462.56;4303845;33;34446;-73
2022/06/09 06:35:54;;;;;;;20.62;13.80;;;;;;;23.25;67.97;98464.38;4303282;33;33384;-73
2022/06/09 06:38:21;;;;;;;19.15;12.70;;;;;;;22.34;73.40;98449.91;4303675;33;34824;-72
2022/06/09 06:40:50;;;;;;;19.15;12.98;;;;;;;22.77;70.59;98454.72;4302812;33;35127;-72
2022/06/09 06:43:17;;;;;;;19.20;12.80;;;;;;;22.12;73.40;98456.78;4302527;33;34413;-71
2022/06/09 06:45:45;;;;;;;21.42;13.52;;;;;;;22.17;73.54;98452.97;4301363;33;33557;-71
2022/06/09 06:48:14;;;;;;;25.52;15.80;;;;;;;21.92;78.12;98462.69;4303422;33;34810;-74
2022/06/09 06:50:42;;;;;;;30.65;17.20;;;;;;;22.10;76.81;98464.00;4301732;33;35748;-70
2022/06/09 06:53:12;;;;;;;29.10;16.73;;;;;;;21.74;79.60;98463.03;4303244;33;35296;-71
2022/06/09 06:55:41;;;;;;;26.25;17.02;;;;;;;22.07;77.02;98448.28;4302848;33;34539;-74
2022/06/09 06:58:09;;;;;;;21.12;14.93;;;;;;;21.92;75.96;98460.03;4302986;33;34159;-70
2022/06/09 07:00:37;;;;;;;20.40;12.98;;;;;;;22.18;75.06;98463.44;4288933;33;35051;-71
2022/06/09 07:03:07;;;;;;;26.25;14.35;;;;;;;22.42;72.28;98466.12;4302066;33;35080;-73
2022/06/09 07:05:58;;;;;;;19.92;13.70;;;;;;;22.25;73.22;98466.47;4291083;33;33655;-70
2022/06/09 07:08:26;;;;;;;17.50;12.82;;;;;;;21.94;76.06;98471.38;4302021;33;34368;-71
2022/06/09 07:10:54;;;;;;;18.35;12.00;;;;;;;22.75;71.30;98480.53;4301544;33;35094;-70
2022/06/09 07:13:22;;;;;;;17.95;11.43;;;;;;;22.05;75.52;98482.03;4314006;33;34550;-70
2022/06/09 07:15:51;;;;;;;16.70;10.95;;;;;;;21.63;76.55;98478.81;4314837;33;33522;-70
2022/06/09 07:18:27;;;;;;;21.25;12.00;;;;;;;22.03;75.06;98491.91;4315447;33;33932;-70
2022/06/09 07:20:56;;;;;;;17.83;11.70;;;;;;;21.92;75.88;98486.53;4314613;33;35136;-70
2022/06/09 07:23:26;;;;;;;14.35;9.50;;;;;;;21.34;80.32;98473.72;4305608;33;34578;-71
2022/06/09 07:25:55;;;;;;;18.95;11.00;;;;;;;21.93;76.48;98459.88;4303887;33;32672;-72
2022/06/09 07:28:24;;;;;;;16.87;10.95;;;;;;;21.43;79.01;98460.81;4304097;33;33911;-72
2022/06/09 07:30:56;;;;;;;16.00;10.57;;;;;;;20.75;85.21;98466.22;4303969;33;35967;-71
2022/06/09 07:33:26;;;;;;;13.80;9.70;;;;;;;20.89;83.36;98470.59;4304125;33;34590;-84
2022/06/09 07:35:58;;;;;;;20.30;11.68;;;;;;;21.05;82.66;98481.00;4291744;33;32879;-85
2022/06/09 07:38:27;;;;;;;19.20;11.57;;;;;;;20.64;87.76;98479.31;4303702;33;34046;-71
2022/06/09 07:40:55;;;;;;;18.70;11.12;;;;;;;21.16;85.49;98486.44;4291887;33;34922;-70
2022/06/09 07:43:43;;;;;;;15.90;10.20;;;;;;;20.99;87.67;98476.13;4314102;33;34442;-79
2022/06/09 07:46:11;;;;;;;15.35;9.50;;;;;;;21.57;83.83;98485.41;4313841;33;33844;-86
2022/06/09 07:48:40;;;;;;;14.77;9.07;;;;;;;22.17;77.55;98487.44;4305226;33;33890;-75
2022/06/09 07:51:16;;;;;;;16.23;9.52;;;;;;;21.87;82.33;98486.00;4303280;33;35176;-73
2022/06/09 07:53:44;;;;;;;11.43;8.18;;;;;;;22.50;81.50;98478.81;4316077;33;35297;-74
2022/06/09 07:56:12;;;;;;;14.07;8.30;;;;;;;22.89;75.99;98475.03;4303457;33;33369;-78
2022/06/09 07:58:41;;;;;;;8.88;6.68;;;;;;;23.03;75.17;98484.59;4315716;33;33934;-72
2022/06/09 08:01:09;;;;;;;10.25;6.82;;;;;;;22.45;73.87;98476.53;4302697;33;35134;-74
2022/06/09 08:03:40;;;;;;;7.95;5.50;;;;;;;22.74;74.05;98478.81;4303927;33;35282;-75
2022/06/09 08:06:09;;;;;;;7.60;4.93;;;;;;;23.59;70.28;98475.88;4304244;33;33513;-78
2022/06/09 08:08:58;;;;;;;10.80;5.90;;;;;;;23.26;70.11;98474.91;4302787;33;33859;-73
2022/06/09 08:11:29;;;;;;;11.70;4.93;;;;;;;23.00;72.52;98476.03;4301220;33;36010;-82
2022/06/09 08:13:58;;;;;;;5.60;3.37;;;;;;;23.63;69.84;98474.69;4303194;33;34845;-83
2022/06/09 08:16:28;;;;;;;6.60;3.45;;;;;;;23.71;65.80;98475.91;4314942;33;32665;-75
2022/06/09 08:18:57;;;;;;;6.00;3.97;;;;;;;23.89;66.73;98474.47;4303306;33;33976;-72
2022/06/09 08:21:27;;;;;;;7.50;4.80;;;;;;;24.38;66.62;98473.16;4302781;33;34233;-76
2022/06/09 08:24:14;;;;;;;5.93;3.50;;;;;;;24.00;67.43;98470.94;4313990;33;34567;-87
2022/06/09 08:26:44;;;;;;;5.80;4.05;;;;;;;23.87;68.32;98468.44;4303089;33;32743;-71
2022/06/09 08:29:12;;;;;;;7.45;4.70;;;;;;;24.85;69.25;98461.41;4299934;33;166489;-74
2022/06/09 08:31:41;;;;;;;5.68;4.43;;;;;;;25.64;67.71;98461.78;4303659;33;34117;-71
2022/06/09 08:34:11;;;;;;;7.93;4.32;;;;;;;25.63;62.60;98464.59;4314628;33;34478;-72
2022/06/09 08:36:39;;;;;;;6.60;4.45;;;;;;;24.68;65.61;98470.81;4302982;33;32339;-72
2022/06/09 08:39:07;;;;;;;7.85;5.32;;;;;;;24.83;65.70;98469.53;4304827;33;34125;-73
2022/06/09 08:41:40;;;;;;;7.60;5.40;;;;;;;24.59;68.05;98472.41;4304015;33;35136;-73
2022/06/09 08:44:17;;;;;;;8.07;5.57;;;;;;;24.69;66.41;98473.34;4304761;33;35257;-71
2022/06/09 08:47:23;;;;;;;7.22;4.70;;;;;;;24.62;67.12;98466.84;4304190;33;33788;-70
2022/06/09 08:49:59;;;;;;;5.75;4.35;;;;;;;24.82;63.18;98461.69;4302860;33;33490;-72
2022/06/09 08:52:30;;;;;;;6.30;4.18;;;;;;;24.35;64.62;98465.44;4303711;33;35156;-77
2022/06/09 08:54:58;;;;;;;8.10;4.72;;;;;;;24.88;62.03;98459.31;4304394;33;34352;-73
2022/06/09 08:57:32;;;;;;;6.75;4.45;;;;;;;24.39;65.33;98450.09;4304124;33;34342;-75
2022/06/09 09:00:01;;;;;;;8.25;5.15;;;;;;;24.41;65.65;98454.31;4315890;33;33929;-72
2022/06/09 09:02:35;;;;;;;4.62;3.37;;;;;;;24.51;65.36;98456.19;4314895;33;35133;-71
2022/06/09 09:05:31;;;;;;;5.87;3.33;;;;;;;24.41;61.63;98464.94;4303504;33;34552;-71
2022/06/09 09:08:06;;;;;;;5.65;3.72;;;;;;;24.66;62.72;98454.97;4299528;33;34357;-72
2022/06/09 09:11:01;;;;;;;3.72;2.25;;;;;;;24.38;64.12;98459.88;4303578;33;34827;-71
2022/06/09 09:13:32;;;;;;;5.60;3.78;;;;;;;24.91;57.71;98455.56;4306567;33;35651;-72
2022/06/09 09:16:03;;;;;;;5.80;3.90;;;;;;;24.57;59.99;98451.25;4305103;33;35265;-73
2022/06/09 09:18:38;;;;;;;5.70;3.90;;;;;;;23.43;64.01;98452.31;4315508;33;34109;-71
2022/06/09 09:21:12;;;;;;;7.40;4.20;;;;;;;23.92;66.26;98457.44;4296674;33;34032;-72
2022/06/09 09:23:46;;;;;;;7.32;3.83;;;;;;;23.70;66.07;98450.28;4304687;33;34656;-72
2022/06/09 09:26:20;;;;;;;5.57;3.75;;;;;;;23.86;64.22;98442.84;4303834;33;34373;-71
2022/06/09 09:29:00;;;;;;;6.57;4.03;;;;;;;23.35;66.01;98443.25;4303868;33;34579;-72
2022/06/09 09:31:51;;;;;;;6.90;4.57;;;;;;;24.04;62.78;98440.50;4314350;33;33947;-73
2022/06/09 09:34:25;;;;;;;7.90;4.10;;;;;;;24.18;64.62;98442.88;4315146;33;33981;-80
2022/06/09 09:37:03;;;;;;;11.12;6.97;;;;;;;25.34;62.11;98442.16;4312985;33;34521;-72
2022/06/09 09:39:45;;;;;;;6.10;4.25;;;;;;;25.72;61.87;98437.13;4314533;33;33524;-70
2022/06/09 09:42:17;;;;;;;4.87;2.90;;;;;;;26.22;57.22;98442.44;4302961;33;33915;-74
2022/06/09 09:45:02;;;;;;;3.50;2.12;;;;;;;27.10;55.03;98447.81;4303560;33;34996;-72
2022/06/09 09:47:32;;;;;;;4.20;2.70;;;;;;;26.99;51.02;98440.81;4303969;33;34475;-71
2022/06/09 09:50:27;;;;;;;5.32;3.10;;;;;;;27.19;55.66;98440.78;4304226;33;33527;-84
2022/06/09 09:52:59;;;;;;;6.05;3.87;;;;;;;26.70;52.72;98445.34;4313408;33;33910;-88
2022/06/09 09:55:36;;;;;;;6.25;3.95;;;;;;;25.53;54.94;98448.53;4303780;33;34839;-87
2022/06/09 09:58:21;;;;;;;5.40;3.22;;;;;;;25.83;57.24;98453.00;4303359;33;33642;-95
2022/06/09 10:00:57;;;;;;;6.82;3.55;;;;;;;27.56;51.03;98443.50;4305645;33;33763;-76
2022/06/09 10:09:44;;;;;;;8.73;4.70;;;;;;;28.90;48.41;98424.22;4302641;33;34793;-71
2022/06/09 10:12:24;;;;;;;7.35;3.90;;;;;;;27.63;50.71;98417.00;4303781;33;33630;-71
2022/06/09 10:15:09;;;;;;;5.43;3.87;;;;;;;27.58;50.16;98408.59;4304106;33;33992;-71
2022/06/09 10:18:09;;;;;;;5.25;3.60;;;;;;;28.26;49.23;98402.88;4303672;33;35855;-72
2022/06/09 10:21:05;;;;;;;6.20;4.05;;;;;;;28.45;50.02;98412.59;4303064;33;34460;-72
2022/06/09 10:23:46;;;;;;;8.38;4.07;;;;;;;27.70;50.21;98409.25;4302742;33;33734;-73
2022/06/09 10:26:20;;;;;;;9.20;4.93;;;;;;;28.65;47.67;98407.09;4303633;33;34646;-71
2022/06/09 10:28:48;;;;;;;5.97;3.92;;;;;;;27.25;54.07;98416.16;4302132;33;35285;-72
2022/06/09 10:31:31;;;;;;;5.50;3.92;;;;;;;27.35;50.47;98411.62;4303593;33;35243;-72
2022/06/09 10:34:17;;;;;;;6.43;4.50;;;;;;;27.07;51.53;98423.22;4313802;33;32776;-88
2022/06/09 10:37:07;;;;;;;7.40;4.35;;;;;;;26.36;52.59;98416.34;4302012;33;34624;-73
2022/06/09 10:39:53;;;;;;;9.38;5.22;;;;;;;25.99;55.14;98414.34;4288101;33;35120;-71
2022/06/09 10:42:44;;;;;;;7.35;4.93;;;;;;;25.85;58.24;98419.03;4299195;33;35283;-70
2022/06/09 10:45:20;;;;;;;6.90;4.62;;;;;;;26.10;55.26;98412.41;4288237;33;33301;-72
2022/06/09 10:56:58;;;;;;;9.02;6.68;;;;;;;25.73;57.33;98382.78;4296066;33;33559;-72
2022/06/09 10:59:48;;;;;;;9.50;5.30;;;;;;;26.32;54.25;98377.59;4303942;33;34531;-72
2022/06/09 11:02:22;;;;;;;20.15;16.70;;;;;;;25.86;55.57;98388.72;4315320;33;34996;-72
2022/06/09 11:04:52;;;;;;;9.65;6.15;;;;;;;26.62;56.43;98393.47;4305512;33;34362;-72
2022/06/09 11:07:45;;;;;;;9.88;4.93;;;;;;;26.71;50.51;98389.12;4303981;33;33427;-71
2022/06/09 11:10:16;;;;;;;6.45;5.12;;;;;;;27.32;49.23;98382.53;4304341;33;34858;-72
2022/06/09 11:13:02;;;;;;;7.60;5.35;;;;;;;28.38;49.00;98387.44;4304963;33;35138;-76
2022/06/09 11:15:47;;;;;;;7.03;5.20;;;;;;;27.96;50.50;98385.34;4295006;33;35114;-71
2022/06/09 11:18:30;;;;;;;8.30;5.32;;;;;;;27.33;51.34;98386.03;4304188;33;33684;-71
2022/06/09 11:21:36;;;;;;;11.40;6.00;;;;;;;27.32;52.52;98374.50;4304243;33;34087;-70
2022/06/09 11:24:23;;;;;;;8.45;5.93;;;;;;;27.23;51.52;98364.66;4288895;33;34804;-70
2022/06/09 11:27:20;;;;;;;9.68;5.40;;;;;;;26.57;53.58;98371.66;4304380;33;34397;-71
2022/06/09 11:29:47;;;;;;;8.23;5.43;;;;;;;26.65;52.83;98357.66;4303707;33;34911;-70
2022/06/09 11:32:21;;;;;;;6.32;4.82;;;;;;;26.00;57.38;98360.00;4305069;33;34319;-70
2022/06/09 11:34:54;;;;;;;7.82;5.62;;;;;;;25.11;59.98;98348.19;4305410;33;35027;-70
2022/06/09 11:37:34;;;;;;;8.77;5.80;;;;;;;24.78;62.18;98347.44;4304119;33;35329;-70
2022/06/09 11:40:15;;;;;;;;;;;;;;;24.30;62.98;98350.59;4305693;33;34343;-71
2022/06/09 11:42:43;;;;;;;7.28;5.03;;;;;;;25.57;58.81;98347.81;4304455;33;34215;-71
2022/06/09 11:45:23;;;;;;;10.65;5.28;;;;;;;25.48;59.95;98350.31;4304863;33;35093;-71
2022/06/09 11:47:53;;;;;;;7.32;5.30;;;;;;;25.44;59.25;98356.88;4303271;33;34510;-79
2022/06/09 11:50:28;;;;;;;10.77;5.97;;;;;;;24.06;63.69;98357.94;4303972;33;34249;-71
2022/06/09 11:52:57;;;;;;;17.02;7.40;;;;;;;23.38;68.34;98350.03;4303477;33;34851;-72
2022/06/09 11:55:59;;;;;;;16.73;8.10;;;;;;;22.95;70.49;98350.75;4291962;33;35237;-73
2022/06/09 11:58:34;;;;;;;11.60;5.55;;;;;;;21.95;76.87;98351.09;4293483;33;35253;-79
2022/06/09 12:01:30;;;;;;;9.60;4.75;;;;;;;21.17;76.18;98353.09;4314459;33;33756;-80
2022/06/09 12:04:27;;;;;;;12.45;5.57;;;;;;;20.34;76.19;98413.41;4297909;33;34870;-79
2022/06/09 12:07:09;;;;;;;;;;;;;;;20.58;79.32;98438.22;4294073;33;35999;-72
2022/06/09 12:09:43;;;;;;;7.53;2.50;;;;;;;19.63;83.60;98452.22;4305080;33;35509;-80
2022/06/09 12:12:34;;;;;;;5.60;3.15;;;;;;;18.87;81.94;98440.09;4304520;33;34560;-78
2022/06/09 12:15:12;;;;;;;11.10;2.90;;;;;;;18.37;87.14;98424.47;4303927;33;34618;-74
2022/06/09 12:18:25;;;;;;;4.75;2.00;;;;;;;18.53;85.86;98384.87;4304264;33;35741;-77
2022/06/09 12:20:59;;;;;;;2.58;1.75;;;;;;;18.76;82.77;98386.16;4298687;33;35147;-72